createdAt,value
2019-04-14T00:03:34.663Z,5.00
2019-04-14T00:13:41.703Z,5.00
2019-04-14T00:23:47.834Z,5.00
2019-04-14T00:33:56.290Z,5.00
2019-04-14T00:44:21.146Z,5.00
2019-04-14T00:54:26.839Z,5.00
2019-04-14T01:04:33.763Z,4.90
2019-04-14T01:14:40.891Z,4.90
2019-04-14T01:24:46.850Z,4.90
2019-04-14T01:34:53.990Z,4.80
2019-04-14T01:45:01.167Z,4.80
2019-04-14T01:55:24.605Z,4.80
2019-04-14T02:05:30.178Z,4.80
2019-04-14T02:15:35.813Z,4.80
2019-04-14T02:25:42.787Z,4.80
2019-04-14T02:36:27.017Z,4.80
2019-04-14T02:46:25.962Z,4.80
2019-04-14T02:56:27.920Z,4.70
2019-04-14T03:06:33.835Z,4.50
2019-04-14T03:17:05.784Z,4.20
2019-04-14T03:27:05.015Z,4.00
2019-04-14T03:47:19.776Z,3.60
2019-04-14T03:57:01.897Z,3.40
2019-04-14T04:17:31.910Z,3.50
2019-04-14T04:27:48.366Z,3.40
2019-04-14T04:37:56.341Z,3.50
2019-04-14T04:48:02.446Z,3.80
2019-04-14T04:58:08.157Z,4.20
2019-04-14T05:08:19.572Z,4.40
2019-04-14T05:18:25.234Z,4.80
2019-04-14T05:28:31.007Z,5.00
2019-04-14T05:38:36.992Z,5.50
2019-04-14T05:48:42.755Z,6.00
2019-04-14T05:58:49.240Z,6.40
2019-04-14T06:08:55.054Z,6.60
2019-04-14T06:19:08.174Z,6.70
2019-04-14T06:29:13.679Z,6.80
2019-04-14T06:39:32.161Z,6.60
2019-04-14T06:59:44.343Z,7.80
2019-04-14T07:09:49.932Z,8.70
2019-04-14T07:20:01.851Z,8.90
2019-04-14T07:30:04.253Z,8.90
2019-04-14T07:40:27.937Z,9.20
2019-04-14T07:50:40.981Z,9.90
2019-04-14T08:10:53.013Z,10.90
2019-04-14T08:20:58.640Z,11.20
2019-04-14T08:31:04.200Z,11.40
2019-04-14T08:41:09.727Z,11.80
2019-04-14T08:51:19.879Z,12.10
2019-04-14T09:01:43.534Z,12.60
2019-04-14T09:11:50.746Z,13.20
2019-04-14T09:21:56.386Z,12.50
2019-04-14T09:32:03.080Z,12.70
2019-04-14T09:42:08.719Z,13.00
2019-04-14T09:52:14.239Z,13.20
2019-04-14T10:02:19.847Z,13.10
2019-04-14T10:22:34.096Z,14.20
2019-04-14T10:32:37.413Z,14.90
2019-04-14T10:42:43.006Z,14.90
2019-04-14T10:52:48.525Z,15.00
2019-04-14T11:02:54.014Z,15.00
2019-04-14T11:12:59.532Z,15.00
2019-04-14T11:23:05.035Z,15.40
2019-04-14T11:43:19.741Z,16.30
2019-04-14T11:53:25.330Z,16.70
2019-04-14T12:03:50.625Z,16.80
2019-04-14T12:13:56.539Z,16.90
2019-04-14T12:24:17.442Z,17.00
2019-04-14T12:34:23.020Z,17.10
2019-04-14T12:44:43.462Z,17.70
2019-04-14T12:54:49.061Z,17.80
2019-04-14T13:04:55.491Z,18.10
2019-04-14T13:15:02.867Z,17.70
2019-04-14T13:25:08.727Z,18.00
2019-04-14T13:35:14.373Z,18.00
2019-04-14T13:45:25.421Z,18.30
2019-04-14T13:55:31.098Z,18.50
2019-04-14T14:05:39.593Z,18.40
2019-04-14T14:15:54.361Z,18.50
2019-04-14T14:26:22.952Z,18.70
2019-04-14T14:36:28.693Z,18.40
2019-04-14T14:46:38.505Z,17.70
2019-04-14T14:56:44.213Z,17.20
2019-04-14T15:06:49.994Z,17.50
2019-04-14T15:16:55.899Z,17.30
2019-04-14T15:27:01.530Z,17.00
2019-04-14T15:37:07.476Z,16.90
2019-04-14T15:47:17.658Z,17.20
2019-04-14T15:57:31.259Z,17.30
2019-04-14T16:07:44.816Z,17.30
2019-04-14T16:17:55.020Z,17.00
2019-04-14T16:28:02.920Z,16.50
2019-04-14T16:38:09.226Z,16.20
2019-04-14T16:48:15.222Z,16.40
2019-04-14T16:58:28.728Z,15.80
2019-04-14T17:08:34.620Z,15.10
2019-04-14T17:18:51.176Z,14.30
2019-04-14T17:29:01.699Z,13.30
2019-04-14T17:39:26.071Z,12.70
2019-04-14T17:49:34.280Z,12.00
2019-04-14T17:59:58.440Z,11.50
2019-04-14T18:10:14.306Z,11.10
2019-04-14T18:20:24.326Z,10.90
2019-04-14T18:30:31.983Z,10.70
2019-04-14T18:40:42.297Z,10.40
2019-04-14T19:01:23.499Z,9.20
2019-04-14T19:11:30.861Z,9.90
2019-04-14T19:21:36.541Z,9.80
2019-04-14T19:31:42.580Z,9.70
2019-04-14T19:41:48.227Z,9.50
2019-04-14T19:51:53.810Z,9.40
2019-04-14T20:01:59.334Z,9.30
2019-04-14T20:12:05.136Z,8.70
2019-04-14T20:32:22.959Z,8.80
2019-04-14T20:42:28.716Z,8.40
2019-04-14T20:52:34.299Z,8.40
2019-04-14T21:02:57.680Z,8.20
2019-04-14T21:13:07.665Z,8.00
2019-04-14T21:23:31.337Z,7.80
2019-04-14T21:43:43.501Z,7.40
2019-04-14T22:03:59.519Z,6.90
2019-04-14T22:14:06.733Z,6.70
2019-04-14T22:24:12.368Z,6.50
2019-04-14T22:34:17.936Z,6.40
2019-04-14T22:44:23.480Z,6.20
2019-04-14T22:54:43.680Z,6.10
2019-04-14T23:04:50.796Z,5.70
2019-04-14T23:14:58.006Z,5.60
2019-04-14T23:35:09.176Z,5.20
2019-04-14T23:45:14.945Z,5.10
2019-04-14T23:55:20.487Z,5.00
